createdAt,value
2023-04-11T00:01:08.558Z,99414.00
2023-04-11T00:03:46.828Z,99407.00
2023-04-11T00:06:15.581Z,99395.00
2023-04-11T00:08:42.665Z,99377.00
2023-04-11T00:11:12.803Z,99401.00
2023-04-11T00:13:41.324Z,99392.00
2023-04-11T00:16:09.804Z,99388.00
2023-04-11T00:18:39.580Z,99371.00
2023-04-11T00:21:08.477Z,99370.00
2023-04-11T00:23:35.693Z,99364.00
2023-04-11T00:26:03.372Z,99373.00
2023-04-11T00:28:30.794Z,99361.00
2023-04-11T00:30:58.469Z,99348.00
2023-04-11T00:33:26.132Z,99354.00
2023-04-11T00:35:53.417Z,99352.00
2023-04-11T00:38:31.902Z,99356.00
2023-04-11T00:41:14.528Z,99350.00
2023-04-11T00:43:41.628Z,99314.00
2023-04-11T00:46:08.733Z,99340.00
2023-04-11T00:48:35.903Z,99349.00
2023-04-11T00:51:02.944Z,99341.00
2023-04-11T00:53:30.590Z,99309.00
2023-04-11T00:55:57.594Z,99339.00
2023-04-11T00:58:24.605Z,99326.00
2023-04-11T01:00:51.739Z,99338.00
2023-04-11T01:03:19.156Z,99320.00
2023-04-11T01:05:47.042Z,99364.00
2023-04-11T01:08:14.175Z,99346.00
2023-04-11T01:10:42.020Z,99338.00
2023-04-11T01:13:09.210Z,99358.00
2023-04-11T01:15:36.160Z,99347.00
2023-04-11T01:18:04.080Z,99348.00
2023-04-11T01:20:31.266Z,99333.00
2023-04-11T01:22:59.249Z,99309.00
2023-04-11T01:25:26.241Z,99331.00
2023-04-11T01:27:53.233Z,99329.00
2023-04-11T01:30:20.205Z,99326.00
2023-04-11T01:32:47.230Z,99318.00
2023-04-11T01:35:14.267Z,99324.00
2023-04-11T01:37:41.379Z,99317.00
2023-04-11T01:40:09.065Z,99322.00
2023-04-11T01:42:37.188Z,99322.00
2023-04-11T01:45:06.214Z,99306.00
2023-04-11T01:47:33.296Z,99293.00
2023-04-11T01:50:00.342Z,99270.00
2023-04-11T01:52:27.316Z,99283.00
2023-04-11T01:54:54.314Z,99281.00
2023-04-11T01:57:21.398Z,99266.00
2023-04-11T01:59:48.536Z,99255.00
2023-04-11T02:02:15.676Z,99260.00
2023-04-11T02:04:42.899Z,99266.00
2023-04-11T02:07:09.941Z,99255.00
2023-04-11T02:09:37.232Z,99270.00
2023-04-11T02:12:04.723Z,99252.00
2023-04-11T02:14:43.192Z,99257.00
2023-04-11T02:17:10.303Z,99275.00
2023-04-11T02:19:38.385Z,99257.00
2023-04-11T02:22:05.424Z,99263.00
2023-04-11T02:24:32.432Z,99240.00
2023-04-11T02:27:01.154Z,99271.00
2023-04-11T02:29:28.539Z,99279.00
2023-04-11T02:31:55.702Z,99264.00
2023-04-11T02:34:22.795Z,99251.00
2023-04-11T02:36:49.872Z,99243.00
2023-04-11T02:39:17.048Z,99238.00
2023-04-11T02:41:43.961Z,99264.00
2023-04-11T02:44:11.480Z,99263.00
2023-04-11T02:46:38.567Z,99267.00
2023-04-11T02:49:05.552Z,99263.00
2023-04-11T02:51:33.580Z,99244.00
2023-04-11T02:54:00.567Z,99258.00
2023-04-11T02:56:27.563Z,99258.00
2023-04-11T02:58:54.923Z,99215.00
2023-04-11T03:01:23.913Z,99241.00
2023-04-11T03:03:51.092Z,99226.00
2023-04-11T03:06:18.199Z,99232.00
2023-04-11T03:08:45.145Z,99198.00
2023-04-11T03:11:12.219Z,99184.00
2023-04-11T03:13:39.152Z,99221.00
2023-04-11T03:16:06.783Z,99199.00
2023-04-11T03:18:33.906Z,99210.00
2023-04-11T03:21:04.121Z,99196.00
2023-04-11T03:23:31.105Z,99209.00
2023-04-11T03:25:58.106Z,99219.00
2023-04-11T03:28:25.228Z,99223.00
2023-04-11T03:30:52.347Z,99198.00
2023-04-11T03:33:19.385Z,99201.00
2023-04-11T03:36:30.288Z,99180.00
2023-04-11T03:38:57.393Z,99218.00
2023-04-11T03:41:24.492Z,99229.00
2023-04-11T03:43:51.501Z,99205.00
2023-04-11T03:46:18.518Z,99212.00
2023-04-11T03:48:45.643Z,99192.00
2023-04-11T03:51:12.799Z,99200.00
2023-04-11T03:53:39.886Z,99212.00
2023-04-11T03:56:07.835Z,99219.00
2023-04-11T03:58:34.836Z,99206.00
2023-04-11T04:01:01.814Z,99211.00
2023-04-11T04:03:29.254Z,99195.00
2023-04-11T04:05:56.300Z,99184.00
2023-04-11T04:08:23.325Z,99209.00
2023-04-11T04:10:50.449Z,99198.00
2023-04-11T04:13:17.345Z,99213.00
2023-04-11T04:15:44.469Z,99211.00
2023-04-11T04:18:11.451Z,99206.00
2023-04-11T04:20:38.450Z,99185.00
2023-04-11T04:23:05.496Z,99197.00
2023-04-11T04:25:32.509Z,99206.00
2023-04-11T04:27:59.522Z,99192.00
2023-04-11T04:30:26.467Z,99192.00
2023-04-11T04:32:53.473Z,99177.00
2023-04-11T04:35:21.017Z,99183.00
2023-04-11T04:37:47.993Z,99181.00
2023-04-11T04:40:15.103Z,99197.00
2023-04-11T04:42:42.177Z,99176.00
2023-04-11T04:45:09.500Z,99177.00
2023-04-11T04:47:37.182Z,99164.00
2023-04-11T04:50:04.539Z,99182.00
2023-04-11T04:52:31.581Z,99174.00
2023-04-11T04:54:58.559Z,99154.00
2023-04-11T04:57:26.300Z,99156.00
2023-04-11T04:59:54.111Z,99170.00
2023-04-11T05:02:21.233Z,99147.00
2023-04-11T05:04:48.415Z,99172.00
2023-04-11T05:07:15.359Z,99139.00
2023-04-11T05:09:42.364Z,99173.00
2023-04-11T05:12:09.464Z,99162.00
2023-04-11T05:14:36.387Z,99166.00
2023-04-11T05:17:03.433Z,99173.00
2023-04-11T05:19:32.825Z,99170.00
2023-04-11T05:21:59.768Z,99168.00
2023-04-11T05:24:26.801Z,99161.00
2023-04-11T05:26:53.736Z,99130.00
2023-04-11T05:29:24.144Z,99151.00
2023-04-11T05:31:51.097Z,99153.00
2023-04-11T05:34:17.992Z,99163.00
2023-04-11T05:36:45.229Z,99144.00
2023-04-11T05:39:12.317Z,99160.00
2023-04-11T05:41:39.960Z,99154.00
2023-04-11T05:44:07.002Z,99147.00
2023-04-11T05:46:34.270Z,99146.00
2023-04-11T05:49:01.320Z,99126.00
2023-04-11T05:51:28.327Z,99121.00
2023-04-11T05:53:55.609Z,99127.00
2023-04-11T05:56:22.817Z,99110.00
2023-04-11T05:58:49.744Z,99132.00
2023-04-11T06:01:16.765Z,99126.00
2023-04-11T06:03:45.039Z,99098.00
2023-04-11T06:06:12.180Z,99132.00
2023-04-11T06:08:39.217Z,99112.00
2023-04-11T06:11:08.800Z,99129.00
2023-04-11T06:13:35.859Z,99122.00
2023-04-11T06:16:03.045Z,99115.00
2023-04-11T06:18:30.248Z,99096.00
2023-04-11T06:20:57.274Z,99133.00
2023-04-11T06:23:24.254Z,99129.00
2023-04-11T06:25:51.212Z,99093.00
2023-04-11T06:28:18.172Z,99077.00
2023-04-11T06:30:45.214Z,99118.00
2023-04-11T06:33:12.510Z,99062.00
2023-04-11T06:35:39.584Z,99087.00
2023-04-11T06:38:06.669Z,99081.00
2023-04-11T06:40:33.819Z,99081.00
2023-04-11T06:43:00.994Z,99075.00
2023-04-11T06:45:28.066Z,99071.00
2023-04-11T06:47:55.164Z,99048.00
2023-04-11T06:50:22.398Z,99073.00
2023-04-11T06:52:49.711Z,99049.00
2023-04-11T06:55:16.988Z,99077.00
2023-04-11T06:57:44.085Z,99052.00
2023-04-11T07:00:11.788Z,99057.00
2023-04-11T07:02:38.995Z,99054.00
2023-04-11T07:05:07.207Z,99044.00
2023-04-11T07:07:34.270Z,99051.00
2023-04-11T07:10:01.233Z,99047.00
2023-04-11T07:12:28.330Z,99071.00
2023-04-11T07:14:55.422Z,99055.00
2023-04-11T07:17:22.487Z,99049.00
2023-04-11T07:19:49.567Z,99049.00
2023-04-11T07:22:16.594Z,99080.00
2023-04-11T07:24:43.574Z,99070.00
2023-04-11T07:27:10.584Z,99063.00
2023-04-11T07:29:37.680Z,99064.00
2023-04-11T07:32:05.130Z,99059.00
2023-04-11T07:34:32.050Z,99083.00
2023-04-11T07:36:59.131Z,99080.00
2023-04-11T07:39:26.205Z,99088.00
2023-04-11T07:41:56.308Z,99089.00
2023-04-11T07:44:24.038Z,99105.00
2023-04-11T07:46:51.276Z,99084.00
2023-04-11T07:49:18.296Z,99087.00
2023-04-11T07:51:45.349Z,99073.00
2023-04-11T07:54:12.357Z,99085.00
2023-04-11T07:56:39.295Z,99061.00
2023-04-11T07:59:06.318Z,99056.00
2023-04-11T08:01:33.348Z,99053.00
2023-04-11T08:04:00.651Z,99058.00
2023-04-11T08:06:27.987Z,99065.00
2023-04-11T08:08:54.922Z,99044.00
2023-04-11T08:11:21.970Z,99037.00
2023-04-11T08:13:49.073Z,99035.00
2023-04-11T08:16:18.328Z,99011.00
2023-04-11T08:18:45.290Z,99012.00
2023-04-11T08:21:12.363Z,99036.00
2023-04-11T08:23:39.732Z,99039.00
2023-04-11T08:26:07.997Z,99042.00
2023-04-11T08:28:35.014Z,99041.00
2023-04-11T08:31:02.023Z,99037.00
2023-04-11T08:33:29.073Z,99040.00
2023-04-11T08:35:56.080Z,99040.00
2023-04-11T08:38:23.028Z,99039.00
2023-04-11T08:40:50.062Z,99040.00
2023-04-11T08:43:17.062Z,99034.00
2023-04-11T08:45:44.090Z,99044.00
2023-04-11T08:48:11.034Z,99038.00
2023-04-11T08:50:40.472Z,99019.00
2023-04-11T08:53:07.543Z,99030.00
2023-04-11T08:55:34.590Z,99014.00
2023-04-11T08:58:01.605Z,99022.00
2023-04-11T09:00:28.718Z,99002.00
2023-04-11T09:02:59.335Z,99005.00
2023-04-11T09:05:40.531Z,98990.00
2023-04-11T09:08:15.867Z,98993.00
2023-04-11T09:10:44.419Z,99004.00
2023-04-11T09:13:25.167Z,99020.00
2023-04-11T09:16:05.648Z,99024.00
2023-04-11T09:18:36.298Z,99018.00
2023-04-11T09:21:09.305Z,99013.00
2023-04-11T09:23:36.707Z,99005.00
2023-04-11T09:26:06.696Z,99009.00
2023-04-11T09:28:47.001Z,99010.00
2023-04-11T09:31:14.132Z,98996.00
2023-04-11T09:33:51.973Z,98992.00
2023-04-11T09:36:23.793Z,98988.00
2023-04-11T09:38:50.848Z,98989.00
2023-04-11T09:41:34.024Z,98982.00
2023-04-11T09:44:01.139Z,98984.00
2023-04-11T09:46:28.226Z,98966.00
2023-04-11T09:48:56.247Z,98953.00
2023-04-11T09:51:35.820Z,98957.00
2023-04-11T09:54:05.144Z,98969.00
2023-04-11T09:56:32.991Z,98976.00
2023-04-11T09:59:00.498Z,98970.00
2023-04-11T10:01:27.640Z,98972.00
2023-04-11T10:03:54.964Z,98967.00
2023-04-11T10:06:40.918Z,98958.00
2023-04-11T10:09:09.892Z,98959.00
2023-04-11T10:11:36.969Z,98957.00
2023-04-11T10:14:04.113Z,98953.00
2023-04-11T10:16:31.146Z,98937.00
2023-04-11T10:18:58.029Z,98949.00
2023-04-11T10:21:30.671Z,98950.00
2023-04-11T10:24:12.789Z,98930.00
2023-04-11T10:27:02.345Z,98938.00
2023-04-11T10:29:29.235Z,98935.00
2023-04-11T10:32:19.667Z,98925.00
2023-04-11T10:34:52.811Z,98928.00
2023-04-11T10:37:35.729Z,98920.00
2023-04-11T10:40:03.730Z,98927.00
2023-04-11T10:42:34.730Z,98924.00
2023-04-11T10:45:29.438Z,98917.00
2023-04-11T10:47:56.626Z,98916.00
2023-04-11T10:50:26.436Z,98925.00
2023-04-11T10:53:07.301Z,98926.00
2023-04-11T10:55:50.687Z,98906.00
2023-04-11T10:58:19.024Z,98906.00
2023-04-11T11:00:48.946Z,98909.00
2023-04-11T11:03:29.671Z,98903.00
2023-04-11T11:06:08.124Z,98889.00
2023-04-11T11:08:39.814Z,98892.00
2023-04-11T11:11:08.182Z,98886.00
2023-04-11T11:13:52.421Z,98877.00
2023-04-11T11:16:21.516Z,98888.00
2023-04-11T11:18:52.778Z,98877.00
2023-04-11T11:21:27.348Z,98871.00
2023-04-11T11:24:02.082Z,98858.00
2023-04-11T11:26:39.446Z,98860.00
2023-04-11T11:29:06.743Z,98826.00
2023-04-11T11:31:43.832Z,98868.00
2023-04-11T11:34:23.052Z,98854.00
2023-04-11T11:36:51.409Z,98833.00
2023-04-11T11:39:19.463Z,98855.00
2023-04-11T11:41:47.390Z,98846.00
2023-04-11T11:44:28.410Z,98833.00
2023-04-11T11:47:11.835Z,98847.00
2023-04-11T11:49:52.590Z,98843.00
2023-04-11T11:52:39.408Z,98835.00
2023-04-11T11:55:10.374Z,98827.00
2023-04-11T11:57:38.529Z,98828.00
2023-04-11T12:00:06.446Z,98824.00
2023-04-11T12:02:34.547Z,98829.00
2023-04-11T12:05:03.250Z,98817.00
2023-04-11T12:07:40.126Z,98816.00
2023-04-11T12:10:08.718Z,98805.00
2023-04-11T12:12:38.230Z,98810.00
2023-04-11T12:15:16.745Z,98806.00
2023-04-11T12:17:44.374Z,98804.00
2023-04-11T12:20:11.360Z,98805.00
2023-04-11T12:22:38.393Z,98804.00
2023-04-11T12:25:10.734Z,98804.00
2023-04-11T12:27:38.468Z,98807.00
2023-04-11T12:30:06.414Z,98796.00
2023-04-11T12:32:33.455Z,98791.00
2023-04-11T12:35:01.330Z,98777.00
2023-04-11T12:37:28.391Z,98770.00
2023-04-11T12:39:55.350Z,98765.00
2023-04-11T12:42:26.671Z,98770.00
2023-04-11T12:44:54.470Z,98765.00
2023-04-11T12:47:21.578Z,98763.00
2023-04-11T12:49:48.697Z,98764.00
2023-04-11T12:52:15.750Z,98752.00
2023-04-11T12:54:42.759Z,98740.00
2023-04-11T12:57:09.759Z,98743.00
2023-04-11T12:59:36.708Z,98732.00
2023-04-11T13:02:03.814Z,98717.00
2023-04-11T13:04:31.056Z,98739.00
2023-04-11T13:06:58.053Z,98728.00
2023-04-11T13:09:25.157Z,98738.00
2023-04-11T13:11:52.148Z,98726.00
2023-04-11T13:14:19.074Z,98705.00
2023-04-11T13:16:46.015Z,98716.00
2023-04-11T13:19:13.018Z,98714.00
2023-04-11T13:21:40.054Z,98706.00
2023-04-11T13:24:07.336Z,98698.00
2023-04-11T13:26:37.371Z,98706.00
2023-04-11T13:29:04.326Z,98706.00
2023-04-11T13:31:31.359Z,98697.00
2023-04-11T13:33:58.853Z,98704.00
2023-04-11T13:36:26.013Z,98692.00
2023-04-11T13:38:54.577Z,98685.00
2023-04-11T13:41:21.793Z,98681.00
2023-04-11T13:43:49.334Z,98667.00
2023-04-11T13:46:16.320Z,98656.00
2023-04-11T13:48:44.359Z,98662.00
2023-04-11T13:51:11.848Z,98664.00
2023-04-11T13:53:38.816Z,98662.00
2023-04-11T13:56:07.392Z,98658.00
2023-04-11T13:58:34.355Z,98663.00
2023-04-11T14:01:01.545Z,98668.00
2023-04-11T14:03:29.144Z,98667.00
2023-04-11T14:05:56.347Z,98663.00
2023-04-11T14:08:23.329Z,98651.00
2023-04-11T14:10:50.317Z,98656.00
2023-04-11T14:13:17.310Z,98659.00
2023-04-11T14:15:45.068Z,98668.00
2023-04-11T14:18:15.718Z,98655.00
2023-04-11T14:20:42.647Z,98641.00
2023-04-11T14:23:09.677Z,98647.00
2023-04-11T14:25:36.704Z,98640.00
2023-04-11T14:28:03.727Z,98655.00
2023-04-11T14:30:30.867Z,98652.00
2023-04-11T14:32:58.042Z,98645.00
2023-04-11T14:35:25.216Z,98631.00
2023-04-11T14:37:52.281Z,98632.00
2023-04-11T14:40:19.423Z,98630.00
2023-04-11T14:42:46.301Z,98632.00
2023-04-11T14:45:13.267Z,98620.00
2023-04-11T14:47:40.309Z,98613.00
2023-04-11T14:50:08.430Z,98612.00
2023-04-11T14:52:35.419Z,98605.00
2023-04-11T14:55:02.459Z,98616.00
2023-04-11T14:57:54.742Z,98602.00
2023-04-11T15:00:21.912Z,98607.00
2023-04-11T15:02:54.521Z,98603.00
2023-04-11T15:05:21.983Z,98589.00
2023-04-11T15:07:50.888Z,98595.00
2023-04-11T15:10:19.736Z,98596.00
2023-04-11T15:12:46.845Z,98596.00
2023-04-11T15:15:13.882Z,98596.00
2023-04-11T15:17:46.744Z,98589.00
2023-04-11T15:20:13.929Z,98601.00
2023-04-11T15:22:42.886Z,98595.00
2023-04-11T15:25:12.415Z,98591.00
2023-04-11T15:27:39.562Z,98586.00
2023-04-11T15:30:07.508Z,98587.00
2023-04-11T15:32:34.775Z,98588.00
2023-04-11T15:35:02.044Z,98580.00
2023-04-11T15:37:29.098Z,98574.00
2023-04-11T15:39:56.048Z,98574.00
2023-04-11T15:42:23.193Z,98585.00
2023-04-11T15:44:50.144Z,98586.00
2023-04-11T15:47:17.494Z,98588.00
2023-04-11T15:49:44.419Z,98577.00
2023-04-11T15:52:11.392Z,98567.00
2023-04-11T15:54:38.344Z,98571.00
2023-04-11T15:57:05.301Z,98557.00
2023-04-11T15:59:33.325Z,98561.00
2023-04-11T16:02:00.489Z,98566.00
2023-04-11T16:04:27.742Z,98566.00
2023-04-11T16:06:54.769Z,98571.00
2023-04-11T16:09:21.744Z,98553.00
2023-04-11T16:11:48.687Z,98559.00
2023-04-11T16:14:15.636Z,98560.00
2023-04-11T16:16:45.249Z,98553.00
2023-04-11T16:19:12.136Z,98541.00
2023-04-11T16:21:41.599Z,98550.00
2023-04-11T16:24:08.644Z,98551.00
2023-04-11T16:26:36.241Z,98556.00
2023-04-11T16:29:03.681Z,98554.00
2023-04-11T16:31:31.254Z,98547.00
2023-04-11T16:33:58.443Z,98542.00
2023-04-11T16:36:25.822Z,98547.00
2023-04-11T16:38:54.351Z,98524.00
2023-04-11T16:41:21.577Z,98542.00
2023-04-11T16:43:48.563Z,98543.00
2023-04-11T16:46:15.733Z,98553.00
2023-04-11T16:48:42.757Z,98553.00
2023-04-11T16:51:10.848Z,98546.00
2023-04-11T16:53:38.642Z,98538.00
2023-04-11T16:56:06.250Z,98548.00
2023-04-11T16:58:33.227Z,98523.00
2023-04-11T17:01:00.527Z,98537.00
2023-04-11T17:03:27.668Z,98536.00
2023-04-11T17:05:54.879Z,98534.00
2023-04-11T17:08:21.916Z,98521.00
2023-04-11T17:10:48.935Z,98521.00
2023-04-11T17:13:15.957Z,98528.00
2023-04-11T17:15:42.936Z,98538.00
2023-04-11T17:18:09.961Z,98523.00
2023-04-11T17:20:37.007Z,98543.00
2023-04-11T17:23:04.124Z,98524.00
2023-04-11T17:25:31.136Z,98536.00
2023-04-11T17:27:58.140Z,98546.00
2023-04-11T17:30:25.180Z,98560.00
2023-04-11T17:32:52.596Z,98554.00
2023-04-11T17:35:19.685Z,98547.00
2023-04-11T17:37:46.768Z,98549.00
2023-04-11T17:40:13.780Z,98546.00
2023-04-11T17:42:41.084Z,98543.00
2023-04-11T17:45:16.666Z,98547.00
2023-04-11T17:47:45.310Z,98545.00
2023-04-11T17:50:12.917Z,98547.00
2023-04-11T17:52:44.349Z,98546.00
2023-04-11T17:55:12.885Z,98559.00
2023-04-11T17:57:40.131Z,98545.00
2023-04-11T18:00:08.325Z,98537.00
2023-04-11T18:02:38.396Z,98546.00
2023-04-11T18:05:16.473Z,98535.00
2023-04-11T18:07:49.921Z,98526.00
2023-04-11T18:10:18.047Z,98551.00
2023-04-11T18:12:50.944Z,98553.00
2023-04-11T18:15:18.042Z,98523.00
2023-04-11T18:17:45.207Z,98535.00
2023-04-11T18:20:12.827Z,98551.00
2023-04-11T18:22:42.448Z,98556.00
2023-04-11T18:25:09.792Z,98554.00
2023-04-11T18:27:37.342Z,98553.00
2023-04-11T18:30:10.971Z,98567.00
2023-04-11T18:32:43.581Z,98574.00
2023-04-11T18:35:13.063Z,98578.00
2023-04-11T18:37:40.885Z,98588.00
2023-04-11T18:40:12.199Z,98575.00
2023-04-11T18:42:45.056Z,98589.00
2023-04-11T18:45:12.744Z,98591.00
2023-04-11T18:47:40.542Z,98583.00
2023-04-11T18:50:08.520Z,98568.00
2023-04-11T18:52:35.475Z,98591.00
2023-04-11T18:55:02.437Z,98594.00
2023-04-11T18:57:31.382Z,98607.00
2023-04-11T19:00:02.474Z,98595.00
2023-04-11T19:02:31.481Z,98579.00
2023-04-11T19:04:58.772Z,98602.00
2023-04-11T19:07:25.779Z,98590.00
2023-04-11T19:09:52.855Z,98602.00
2023-04-11T19:12:20.001Z,98595.00
2023-04-11T19:14:47.032Z,98586.00
2023-04-11T19:17:13.936Z,98605.00
2023-04-11T19:19:40.974Z,98608.00
2023-04-11T19:22:08.167Z,98581.00
2023-04-11T19:24:35.263Z,98593.00
2023-04-11T19:27:02.268Z,98599.00
2023-04-11T19:29:30.769Z,98607.00
2023-04-11T19:31:57.861Z,98588.00
2023-04-11T19:34:24.864Z,98592.00
2023-04-11T19:36:51.910Z,98614.00
2023-04-11T19:39:18.895Z,98622.00
2023-04-11T19:41:46.008Z,98610.00
2023-04-11T19:44:13.209Z,98607.00
2023-04-11T19:46:40.544Z,98605.00
2023-04-11T19:49:08.019Z,98620.00
2023-04-11T19:51:35.024Z,98618.00
2023-04-11T19:54:02.067Z,98598.00
2023-04-11T19:56:29.011Z,98621.00
2023-04-11T19:58:56.126Z,98614.00
2023-04-11T20:01:23.240Z,98612.00
2023-04-11T20:03:50.460Z,98615.00
2023-04-11T20:06:17.593Z,98623.00
2023-04-11T20:08:44.574Z,98611.00
2023-04-11T20:11:15.262Z,98614.00
2023-04-11T20:13:42.366Z,98595.00
2023-04-11T20:16:09.589Z,98614.00
2023-04-11T20:18:36.650Z,98600.00
2023-04-11T20:21:03.771Z,98595.00
2023-04-11T20:23:31.524Z,98620.00
2023-04-11T20:25:58.827Z,98612.00
2023-04-11T20:28:25.984Z,98629.00
2023-04-11T20:30:53.059Z,98621.00
2023-04-11T20:33:20.196Z,98583.00
2023-04-11T20:35:47.378Z,98622.00
2023-04-11T20:38:15.628Z,98625.00
2023-04-11T20:40:42.771Z,98630.00
2023-04-11T20:43:09.755Z,98614.00
2023-04-11T20:45:36.731Z,98619.00
2023-04-11T20:48:03.787Z,98595.00
2023-04-11T20:50:30.954Z,98596.00
2023-04-11T20:52:57.917Z,98607.00
2023-04-11T20:55:25.047Z,98590.00
2023-04-11T20:57:54.876Z,98574.00
2023-04-11T21:00:23.322Z,98596.00
2023-04-11T21:02:50.802Z,98583.00
2023-04-11T21:05:20.655Z,98606.00
2023-04-11T21:07:47.827Z,98596.00
2023-04-11T21:10:14.856Z,98614.00
2023-04-11T21:12:42.209Z,98621.00
2023-04-11T21:15:10.155Z,98609.00
2023-04-11T21:17:37.293Z,98606.00
2023-04-11T21:20:04.778Z,98611.00
2023-04-11T21:22:31.835Z,98608.00
2023-04-11T21:24:58.839Z,98587.00
2023-04-11T21:27:25.855Z,98578.00
2023-04-11T21:29:52.831Z,98576.00
2023-04-11T21:32:19.988Z,98592.00
2023-04-11T21:34:47.003Z,98578.00
2023-04-11T21:37:14.045Z,98583.00
2023-04-11T21:39:40.995Z,98581.00
2023-04-11T21:42:07.947Z,98556.00
2023-04-11T21:44:34.928Z,98591.00
2023-04-11T21:47:01.960Z,98586.00
2023-04-11T21:49:29.060Z,98580.00
2023-04-11T21:51:56.424Z,98567.00
2023-04-11T21:54:23.463Z,98588.00
2023-04-11T21:56:50.438Z,98563.00
2023-04-11T21:59:17.363Z,98545.00
2023-04-11T22:01:44.408Z,98560.00
2023-04-11T22:04:11.826Z,98567.00
2023-04-11T22:06:39.043Z,98571.00
2023-04-11T22:09:06.153Z,98559.00
2023-04-11T22:11:33.120Z,98549.00
2023-04-11T22:14:00.136Z,98565.00
2023-04-11T22:16:31.160Z,98563.00
2023-04-11T22:18:58.243Z,98559.00
2023-04-11T22:21:25.502Z,98572.00
2023-04-11T22:23:54.585Z,98568.00
2023-04-11T22:26:26.877Z,98562.00
2023-04-11T22:28:54.389Z,98544.00
2023-04-11T22:31:22.241Z,98550.00
2023-04-11T22:33:49.771Z,98545.00
2023-04-11T22:36:17.054Z,98545.00
2023-04-11T22:38:59.464Z,98530.00
2023-04-11T22:41:26.860Z,98558.00
2023-04-11T22:43:54.291Z,98562.00
2023-04-11T22:46:21.452Z,98572.00
2023-04-11T22:48:48.871Z,98559.00
2023-04-11T22:51:16.051Z,98553.00
2023-04-11T22:53:44.003Z,98531.00
2023-04-11T22:56:11.399Z,98543.00
2023-04-11T22:58:38.473Z,98537.00
2023-04-11T23:01:06.350Z,98543.00
2023-04-11T23:03:33.872Z,98548.00
2023-04-11T23:06:01.288Z,98543.00
2023-04-11T23:08:29.552Z,98537.00
2023-04-11T23:10:56.725Z,98537.00
2023-04-11T23:13:24.003Z,98559.00
2023-04-11T23:15:51.203Z,98558.00
2023-04-11T23:18:19.629Z,98548.00
2023-04-11T23:20:46.640Z,98526.00
2023-04-11T23:23:13.584Z,98526.00
2023-04-11T23:25:40.685Z,98537.00
2023-04-11T23:28:08.285Z,98535.00
2023-04-11T23:30:36.313Z,98534.00
2023-04-11T23:33:07.896Z,98520.00
2023-04-11T23:35:36.037Z,98524.00
2023-04-11T23:38:04.232Z,98522.00
2023-04-11T23:40:32.151Z,98520.00
2023-04-11T23:42:59.828Z,98510.00
2023-04-11T23:45:26.794Z,98516.00
2023-04-11T23:47:53.870Z,98512.00
2023-04-11T23:50:21.587Z,98517.00
2023-04-11T23:52:49.399Z,98519.00
2023-04-11T23:55:17.110Z,98522.00
2023-04-11T23:57:44.842Z,98525.00
